Terminal Aerodrome Forecast
Issued by NWS

Home | Current Version | Previous Version | Text Only | Print | Product List | Glossary On
Versions: 1 2 3 4 5 6 7 8 9 10 11 12 13 14 15 16 17 18 19 20 21 22 23 24 25 26 27 28 29 30 31 32 33 34 35 36
000
FTAK31 PANC 270540
TAFADU
TAF
PADU 270540Z 2706/2806 16014G24KT 6SM -RA BR FEW015 BKN025 OVC040
     FM271200 19010G18KT P6SM -SHRA SCT025 BKN040
     FM271800 19008KT P6SM VCSH SCT025 BKN040=

USA.gov is the U.S. government's official web portal to all federal, state and local government web resources and services.